createdAt,value
2022-11-23T00:00:36.389Z,95.80
2022-11-23T00:03:03.565Z,95.80
2022-11-23T00:05:31.855Z,95.80
2022-11-23T00:07:58.581Z,95.80
2022-11-23T00:10:25.403Z,95.80
2022-11-23T00:12:52.203Z,95.80
2022-11-23T00:15:18.961Z,95.90
2022-11-23T00:17:48.114Z,95.80
2022-11-23T00:20:14.924Z,95.80
2022-11-23T00:22:41.646Z,95.90
2022-11-23T00:25:08.784Z,95.70
2022-11-23T00:27:35.529Z,95.50
2022-11-23T00:30:02.294Z,95.70
2022-11-23T00:32:30.135Z,95.80
2022-11-23T00:34:56.853Z,95.90
2022-11-23T00:37:23.594Z,95.90
2022-11-23T00:39:50.354Z,95.90
2022-11-23T00:42:17.080Z,95.60
2022-11-23T00:44:43.835Z,95.70
2022-11-23T00:47:10.766Z,95.70
2022-11-23T00:49:37.484Z,95.50
2022-11-23T00:52:04.343Z,95.30
2022-11-23T00:54:31.068Z,95.40
2022-11-23T00:56:57.782Z,95.40
2022-11-23T00:59:24.492Z,95.40
2022-11-23T01:01:51.296Z,95.20
2022-11-23T01:04:18.167Z,95.10
2022-11-23T01:06:44.988Z,95.00
2022-11-23T01:09:24.990Z,94.80
2022-11-23T01:11:52.337Z,94.90
2022-11-23T01:14:19.712Z,94.80
2022-11-23T01:16:46.813Z,94.60
2022-11-23T01:19:16.368Z,94.70
2022-11-23T01:21:43.706Z,95.00
2022-11-23T01:24:16.333Z,95.30
2022-11-23T01:26:44.244Z,95.20
2022-11-23T01:29:11.740Z,95.20
2022-11-23T01:31:43.193Z,95.10
2022-11-23T01:34:14.469Z,95.10
2022-11-23T01:36:41.826Z,95.00
2022-11-23T01:39:10.716Z,94.90
2022-11-23T01:41:40.357Z,95.00
2022-11-23T01:44:41.836Z,95.00
2022-11-23T01:47:09.478Z,95.00
2022-11-23T01:49:40.383Z,95.20
2022-11-23T01:52:12.869Z,95.10
2022-11-23T01:54:53.576Z,95.00
2022-11-23T01:57:28.643Z,95.10
2022-11-23T01:59:56.582Z,95.20
2022-11-23T02:02:23.940Z,95.40
2022-11-23T02:04:53.812Z,95.30
2022-11-23T02:07:21.784Z,95.00
2022-11-23T02:09:50.174Z,95.00
2022-11-23T02:12:17.124Z,95.00
2022-11-23T02:14:44.886Z,95.20
2022-11-23T02:17:12.038Z,95.20
2022-11-23T02:19:54.029Z,95.40
2022-11-23T02:22:25.745Z,95.30
2022-11-23T02:24:55.139Z,95.30
2022-11-23T02:27:23.342Z,95.10
2022-11-23T02:29:52.330Z,95.20
2022-11-23T02:32:24.630Z,95.20
2022-11-23T02:34:51.460Z,95.30
2022-11-23T02:37:18.957Z,95.20
2022-11-23T02:39:51.231Z,95.30
2022-11-23T02:42:18.610Z,95.50
2022-11-23T02:44:53.565Z,95.50
2022-11-23T02:47:20.349Z,95.40
2022-11-23T02:49:48.226Z,95.40
2022-11-23T02:52:15.949Z,95.30
2022-11-23T02:54:42.718Z,95.40
2022-11-23T02:57:09.787Z,95.40
2022-11-23T02:59:36.722Z,95.40
2022-11-23T03:02:04.853Z,95.40
2022-11-23T03:04:32.016Z,95.50
2022-11-23T03:06:59.281Z,95.50
2022-11-23T03:09:26.430Z,95.50
2022-11-23T03:11:53.867Z,95.40
2022-11-23T03:14:21.954Z,95.40
2022-11-23T03:16:49.750Z,95.30
2022-11-23T03:19:16.854Z,95.30
2022-11-23T03:21:43.578Z,95.20
2022-11-23T03:24:10.301Z,95.20
2022-11-23T03:26:37.072Z,95.40
2022-11-23T03:29:03.810Z,95.40
2022-11-23T03:31:30.594Z,95.20
2022-11-23T03:33:57.287Z,95.20
2022-11-23T03:36:24.021Z,95.30
2022-11-23T03:38:50.743Z,95.20
2022-11-23T03:41:17.501Z,95.40
2022-11-23T03:43:44.224Z,95.40
2022-11-23T03:46:10.949Z,95.50
2022-11-23T03:48:37.660Z,95.40
2022-11-23T03:51:04.510Z,95.50
2022-11-23T03:53:31.392Z,95.60
2022-11-23T03:55:58.245Z,95.60
2022-11-23T03:58:25.097Z,95.60
2022-11-23T04:00:51.882Z,95.60
2022-11-23T04:03:18.721Z,95.60
2022-11-23T04:05:45.460Z,95.70
2022-11-23T04:08:12.438Z,95.60
2022-11-23T04:10:39.182Z,95.50
2022-11-23T04:13:06.045Z,95.60
2022-11-23T04:15:32.900Z,95.50
2022-11-23T04:17:59.691Z,95.40
2022-11-23T04:20:26.540Z,95.50
2022-11-23T04:22:53.543Z,95.50
2022-11-23T04:25:20.266Z,95.50
2022-11-23T04:27:47.016Z,95.30
2022-11-23T04:30:14.236Z,95.20
2022-11-23T04:32:41.024Z,95.20
2022-11-23T04:35:08.066Z,95.20
2022-11-23T04:37:34.792Z,95.30
2022-11-23T04:40:01.739Z,95.40
2022-11-23T04:42:28.912Z,95.40
2022-11-23T04:44:57.312Z,95.40
2022-11-23T04:47:25.030Z,95.30
2022-11-23T04:49:51.774Z,95.30
2022-11-23T04:52:18.521Z,95.30
2022-11-23T04:54:45.258Z,95.40
2022-11-23T04:57:12.023Z,95.40
2022-11-23T04:59:38.812Z,95.40
2022-11-23T05:02:05.592Z,95.10
2022-11-23T05:04:34.259Z,95.10
2022-11-23T05:07:00.991Z,95.20
2022-11-23T05:09:27.745Z,95.40
2022-11-23T05:11:54.572Z,95.40
2022-11-23T05:14:21.304Z,95.40
2022-11-23T05:16:48.066Z,95.40
2022-11-23T05:19:14.874Z,95.30
2022-11-23T05:21:41.691Z,95.30
2022-11-23T05:24:08.701Z,95.20
2022-11-23T05:26:35.781Z,95.00
2022-11-23T05:29:02.650Z,95.00
2022-11-23T05:31:29.578Z,95.10
2022-11-23T05:33:56.388Z,94.90
2022-11-23T05:36:23.118Z,95.10
2022-11-23T05:38:49.949Z,95.30
2022-11-23T05:41:16.733Z,95.30
2022-11-23T05:43:45.363Z,95.10
2022-11-23T05:46:12.610Z,95.10
2022-11-23T05:48:39.409Z,95.10
2022-11-23T05:51:06.910Z,95.10
2022-11-23T05:53:34.057Z,95.30
2022-11-23T05:56:02.033Z,95.20
2022-11-23T05:58:29.398Z,95.20
2022-11-23T06:01:02.401Z,95.20
2022-11-23T06:03:29.389Z,95.30
2022-11-23T06:05:56.179Z,95.30
2022-11-23T06:08:22.972Z,95.40
2022-11-23T06:10:49.704Z,95.40
2022-11-23T06:13:16.424Z,95.40
2022-11-23T06:15:43.209Z,95.30
2022-11-23T06:18:10.035Z,95.40
2022-11-23T06:20:37.214Z,95.40
2022-11-23T06:23:03.976Z,95.40
2022-11-23T06:25:30.816Z,95.30
2022-11-23T06:27:59.356Z,95.10
2022-11-23T06:30:27.419Z,95.10
2022-11-23T06:32:54.681Z,95.30
2022-11-23T06:35:21.517Z,95.20
2022-11-23T06:37:49.604Z,95.10
2022-11-23T06:40:16.795Z,95.10
2022-11-23T06:42:43.691Z,95.20
2022-11-23T06:45:11.143Z,95.30
2022-11-23T06:47:37.923Z,95.20
2022-11-23T06:50:05.579Z,95.20
2022-11-23T06:52:32.428Z,95.30
2022-11-23T06:54:59.153Z,95.30
2022-11-23T06:57:25.910Z,95.50
2022-11-23T06:59:52.738Z,95.40
2022-11-23T07:02:19.532Z,95.20
2022-11-23T07:04:46.416Z,95.20
2022-11-23T07:07:13.274Z,95.30
2022-11-23T07:09:40.062Z,95.30
2022-11-23T07:12:07.469Z,95.30
2022-11-23T07:14:34.339Z,95.30
2022-11-23T07:17:01.138Z,95.40
2022-11-23T07:19:27.867Z,95.40
2022-11-23T07:21:54.673Z,95.50
2022-11-23T07:24:21.431Z,95.50
2022-11-23T07:26:48.173Z,95.40
2022-11-23T07:29:14.924Z,95.40
2022-11-23T07:31:41.714Z,95.40
2022-11-23T07:34:09.334Z,95.30
2022-11-23T07:36:36.097Z,95.30
2022-11-23T07:39:03.419Z,95.40
2022-11-23T07:41:30.254Z,95.30
2022-11-23T07:43:57.029Z,95.10
2022-11-23T07:46:23.786Z,95.20
2022-11-23T07:48:50.761Z,95.20
2022-11-23T07:51:19.576Z,95.20
2022-11-23T07:53:47.179Z,95.00
2022-11-23T07:56:13.969Z,94.80
2022-11-23T07:58:40.768Z,94.90
2022-11-23T08:01:07.626Z,94.90
2022-11-23T08:03:34.749Z,94.60
2022-11-23T08:06:01.752Z,94.50
2022-11-23T08:08:29.017Z,94.50
2022-11-23T08:10:55.805Z,94.30
2022-11-23T08:13:22.936Z,94.30
2022-11-23T08:15:54.924Z,94.30
2022-11-23T08:18:23.442Z,94.40
2022-11-23T08:20:51.294Z,94.40
2022-11-23T08:23:18.361Z,94.40
2022-11-23T08:25:45.278Z,94.40
2022-11-23T08:28:12.273Z,94.10
2022-11-23T08:30:39.116Z,94.00
2022-11-23T08:33:06.522Z,93.60
2022-11-23T08:35:35.138Z,93.80
2022-11-23T08:38:02.173Z,93.90
2022-11-23T08:40:29.116Z,93.90
2022-11-23T08:42:56.036Z,93.40
2022-11-23T08:45:22.805Z,93.30
2022-11-23T08:47:50.888Z,93.40
2022-11-23T08:50:18.007Z,93.40
2022-11-23T08:52:44.786Z,93.30
2022-11-23T08:55:12.025Z,92.90
2022-11-23T08:57:39.095Z,93.00
2022-11-23T09:00:06.537Z,92.80
2022-11-23T09:02:34.025Z,92.60
2022-11-23T09:05:00.852Z,92.50
2022-11-23T09:07:27.832Z,92.40
2022-11-23T09:09:56.751Z,92.10
2022-11-23T09:12:23.624Z,92.00
2022-11-23T09:14:50.337Z,91.60
2022-11-23T09:17:17.141Z,91.80
2022-11-23T09:19:43.900Z,91.80
2022-11-23T09:22:10.704Z,91.60
2022-11-23T09:24:37.683Z,91.70
2022-11-23T09:27:04.665Z,91.80
2022-11-23T09:29:31.375Z,91.40
2022-11-23T09:31:58.206Z,91.40
2022-11-23T09:34:24.957Z,91.30
2022-11-23T09:36:51.658Z,91.20
2022-11-23T09:39:18.439Z,91.00
2022-11-23T09:41:48.293Z,90.70
2022-11-23T09:44:34.333Z,90.50
2022-11-23T09:47:28.454Z,90.00
2022-11-23T09:50:01.862Z,90.10
2022-11-23T09:52:30.757Z,89.70
2022-11-23T09:55:07.046Z,90.20
2022-11-23T09:57:35.771Z,89.90
2022-11-23T10:00:07.169Z,90.00
2022-11-23T10:02:40.381Z,89.70
2022-11-23T10:05:10.613Z,89.80
2022-11-23T10:07:56.448Z,89.40
2022-11-23T10:10:45.691Z,88.00
2022-11-23T10:13:15.269Z,88.60
2022-11-23T10:15:47.860Z,88.30
2022-11-23T10:18:38.869Z,87.90
2022-11-23T10:21:19.718Z,87.70
2022-11-23T10:24:10.386Z,87.60
2022-11-23T10:26:41.370Z,87.30
2022-11-23T10:29:28.359Z,87.60
2022-11-23T10:31:57.323Z,87.50
2022-11-23T10:34:35.093Z,87.20
2022-11-23T10:37:02.033Z,87.80
2022-11-23T10:39:29.158Z,87.70
2022-11-23T10:42:01.691Z,87.70
2022-11-23T10:44:38.092Z,88.20
2022-11-23T10:47:05.616Z,88.10
2022-11-23T10:49:34.914Z,87.60
2022-11-23T10:52:26.734Z,87.80
2022-11-23T10:54:55.413Z,88.50
2022-11-23T10:57:29.597Z,87.90
2022-11-23T11:00:14.655Z,88.20
2022-11-23T11:02:46.645Z,88.60
2022-11-23T11:06:07.068Z,88.20
2022-11-23T11:08:20.700Z,88.40
2022-11-23T11:11:07.427Z,88.30
2022-11-23T11:13:48.105Z,88.20
2022-11-23T11:16:36.626Z,88.70
2022-11-23T11:19:33.861Z,88.40
2022-11-23T11:22:24.527Z,87.90
2022-11-23T11:24:51.452Z,87.00
2022-11-23T11:27:23.692Z,87.10
2022-11-23T11:30:07.213Z,86.10
2022-11-23T11:32:39.287Z,85.30
2022-11-23T11:35:39.562Z,85.10
2022-11-23T11:38:27.510Z,84.90
2022-11-23T11:40:56.745Z,83.90
2022-11-23T11:43:39.943Z,83.40
2022-11-23T11:46:30.471Z,82.90
2022-11-23T11:49:21.529Z,83.50
2022-11-23T11:51:54.662Z,82.40
2022-11-23T11:54:42.673Z,80.20
2022-11-23T11:57:28.014Z,80.70
2022-11-23T11:59:58.100Z,80.10
2022-11-23T12:02:29.810Z,79.80
2022-11-23T12:05:20.595Z,79.30
2022-11-23T12:08:15.678Z,79.90
2022-11-23T12:10:56.825Z,79.00
2022-11-23T12:13:38.722Z,76.00
2022-11-23T12:16:08.523Z,79.00
2022-11-23T12:18:53.487Z,78.80
2022-11-23T12:21:43.370Z,79.20
2022-11-23T12:24:28.678Z,79.50
2022-11-23T12:27:38.652Z,79.70
2022-11-23T12:30:41.559Z,80.60
2022-11-23T12:33:39.065Z,80.80
2022-11-23T12:36:33.660Z,80.90
2022-11-23T12:39:33.647Z,78.40
2022-11-23T12:42:35.714Z,73.70
2022-11-23T12:45:18.606Z,72.90
2022-11-23T12:47:52.223Z,71.10
2022-11-23T12:50:39.389Z,70.70
2022-11-23T12:53:24.321Z,72.60
2022-11-23T12:56:09.843Z,72.90
2022-11-23T12:58:39.181Z,75.50
2022-11-23T13:01:35.240Z,75.30
2022-11-23T13:04:30.640Z,73.80
2022-11-23T13:07:35.954Z,74.60
2022-11-23T13:10:37.948Z,75.00
2022-11-23T13:13:22.480Z,73.60
2022-11-23T13:16:17.493Z,73.20
2022-11-23T13:19:06.991Z,73.90
2022-11-23T13:21:45.006Z,74.70
2022-11-23T13:24:35.589Z,74.10
2022-11-23T13:27:14.868Z,71.60
2022-11-23T13:29:50.178Z,66.00
2022-11-23T13:32:51.269Z,63.60
2022-11-23T13:35:21.294Z,61.30
2022-11-23T13:37:56.861Z,59.40
2022-11-23T13:40:36.540Z,61.40
2022-11-23T13:43:20.767Z,64.50
2022-11-23T13:46:17.203Z,65.30
2022-11-23T13:48:56.639Z,65.10
2022-11-23T13:51:35.019Z,67.50
2022-11-23T13:54:19.365Z,69.40
2022-11-23T13:56:46.473Z,70.90
2022-11-23T13:59:22.481Z,71.00
2022-11-23T14:02:07.647Z,71.50
2022-11-23T14:04:41.565Z,71.40
2022-11-23T14:07:09.057Z,72.50
2022-11-23T14:09:57.235Z,72.20
2022-11-23T14:13:06.082Z,68.10
2022-11-23T14:15:36.124Z,65.30
2022-11-23T14:18:27.937Z,62.70
2022-11-23T14:21:33.371Z,62.70
2022-11-23T14:24:26.119Z,63.60
2022-11-23T14:27:45.630Z,64.00
2022-11-23T14:30:13.597Z,66.40
2022-11-23T14:33:09.699Z,68.00
2022-11-23T14:36:08.041Z,71.40
2022-11-23T14:38:42.911Z,73.70
2022-11-23T14:41:16.405Z,75.30
2022-11-23T14:43:46.036Z,76.90
2022-11-23T14:46:21.306Z,78.50
2022-11-23T14:48:49.387Z,79.30
2022-11-23T14:51:20.776Z,80.80
2022-11-23T14:53:51.249Z,82.20
2022-11-23T14:56:31.318Z,83.10
2022-11-23T14:59:08.272Z,83.70
2022-11-23T15:01:37.105Z,83.90
2022-11-23T15:04:10.217Z,84.60
2022-11-23T15:06:45.984Z,85.20
2022-11-23T15:09:15.820Z,85.40
2022-11-23T15:11:42.738Z,85.60
2022-11-23T15:14:20.881Z,86.00
2022-11-23T15:16:49.368Z,86.70
2022-11-23T15:19:28.156Z,87.00
2022-11-23T15:21:56.878Z,87.30
2022-11-23T15:24:25.951Z,87.40
2022-11-23T15:26:53.705Z,87.70
2022-11-23T15:29:38.079Z,87.80
2022-11-23T15:32:30.393Z,88.10
2022-11-23T15:35:06.550Z,88.40
2022-11-23T15:37:40.973Z,88.50
2022-11-23T15:40:13.243Z,88.60
2022-11-23T15:42:40.310Z,88.90
2022-11-23T15:45:37.718Z,89.30
2022-11-23T15:48:10.549Z,89.40
2022-11-23T15:50:51.844Z,89.90
2022-11-23T15:53:20.966Z,90.10
2022-11-23T15:55:49.935Z,90.10
2022-11-23T15:58:19.238Z,90.30
2022-11-23T16:00:54.835Z,90.80
2022-11-23T16:03:55.631Z,90.70
2022-11-23T16:06:40.873Z,90.70
2022-11-23T16:09:55.420Z,90.30
2022-11-23T16:12:34.135Z,90.40
2022-11-23T16:15:38.707Z,90.50
2022-11-23T16:18:12.658Z,90.50
2022-11-23T16:20:48.588Z,90.30
2022-11-23T16:23:22.435Z,90.10
2022-11-23T16:26:07.733Z,90.10
2022-11-23T16:28:37.305Z,89.70
2022-11-23T16:31:24.629Z,90.10
2022-11-23T16:33:51.431Z,90.40
2022-11-23T16:36:18.130Z,90.10
2022-11-23T16:38:45.291Z,90.00
2022-11-23T16:41:12.268Z,90.40
2022-11-23T16:44:47.626Z,90.60
2022-11-23T16:47:26.169Z,90.70
2022-11-23T16:49:54.239Z,91.20
2022-11-23T16:52:22.870Z,91.10
2022-11-23T16:54:50.454Z,91.00
2022-11-23T16:57:38.012Z,91.30
2022-11-23T17:00:08.247Z,91.70
2022-11-23T17:02:35.102Z,91.60
2022-11-23T17:05:02.012Z,91.20
2022-11-23T17:07:29.386Z,91.40
2022-11-23T17:09:58.995Z,91.60
2022-11-23T17:12:25.743Z,91.40
2022-11-23T17:14:52.601Z,91.60
2022-11-23T17:17:21.958Z,91.50
2022-11-23T17:19:49.915Z,91.80
2022-11-23T17:22:18.631Z,92.00
2022-11-23T17:24:46.511Z,91.90
2022-11-23T17:27:24.156Z,91.00
2022-11-23T17:30:00.531Z,90.90
2022-11-23T17:32:28.365Z,91.80
2022-11-23T17:34:55.111Z,91.80
2022-11-23T17:37:24.188Z,91.50
2022-11-23T17:39:51.242Z,92.20
2022-11-23T17:42:18.095Z,92.60
2022-11-23T17:44:44.842Z,92.80
2022-11-23T17:47:28.617Z,93.10
2022-11-23T17:49:55.972Z,93.30
2022-11-23T17:52:23.865Z,93.30
2022-11-23T17:54:51.492Z,93.30
2022-11-23T17:57:23.357Z,93.20
2022-11-23T17:59:50.484Z,93.10
2022-11-23T18:02:19.185Z,93.20
2022-11-23T18:04:46.942Z,93.20
2022-11-23T18:07:15.036Z,93.30
2022-11-23T18:09:42.117Z,93.20
2022-11-23T18:12:09.764Z,93.20
2022-11-23T18:14:37.238Z,93.30
2022-11-23T18:17:04.101Z,93.10
2022-11-23T18:19:31.298Z,93.10
2022-11-23T18:21:58.425Z,93.00
2022-11-23T18:24:25.165Z,93.20
2022-11-23T18:26:51.891Z,93.20
2022-11-23T18:29:18.692Z,93.60
2022-11-23T18:31:45.437Z,93.10
2022-11-23T18:34:12.221Z,93.20
2022-11-23T18:36:38.937Z,93.40
2022-11-23T18:39:06.251Z,93.60
2022-11-23T18:41:33.058Z,93.70
2022-11-23T18:43:59.813Z,93.60
2022-11-23T18:46:27.986Z,93.70
2022-11-23T18:48:57.201Z,93.60
2022-11-23T18:51:24.227Z,93.00
2022-11-23T18:53:52.952Z,93.40
2022-11-23T18:56:19.683Z,94.30
2022-11-23T18:58:46.646Z,94.40
2022-11-23T19:01:18.879Z,94.70
2022-11-23T19:03:47.658Z,94.80
2022-11-23T19:06:15.729Z,94.90
2022-11-23T19:08:50.853Z,94.60
2022-11-23T19:11:20.704Z,94.50
2022-11-23T19:13:50.059Z,94.40
2022-11-23T19:16:28.822Z,93.70
2022-11-23T19:19:03.927Z,93.70
2022-11-23T19:21:32.545Z,94.00
2022-11-23T19:24:00.288Z,93.90
2022-11-23T19:26:28.076Z,93.90
2022-11-23T19:28:55.274Z,93.70
2022-11-23T19:31:27.222Z,93.50
2022-11-23T19:33:57.372Z,93.80
2022-11-23T19:36:25.640Z,94.00
2022-11-23T19:38:55.190Z,93.90
2022-11-23T19:41:29.563Z,93.90
2022-11-23T19:43:59.105Z,93.90
2022-11-23T19:46:26.376Z,94.20
2022-11-23T19:48:54.773Z,94.10
2022-11-23T19:51:21.701Z,94.30
2022-11-23T19:53:49.306Z,94.40
2022-11-23T19:56:19.203Z,94.50
2022-11-23T19:58:46.663Z,94.40
2022-11-23T20:01:17.981Z,94.40
2022-11-23T20:03:46.446Z,94.40
2022-11-23T20:06:16.320Z,94.10
2022-11-23T20:08:43.623Z,94.20
2022-11-23T20:11:15.679Z,94.40
2022-11-23T20:13:43.415Z,94.20
2022-11-23T20:16:15.640Z,94.20
2022-11-23T20:18:44.215Z,94.10
2022-11-23T20:21:12.896Z,94.10
2022-11-23T20:23:40.866Z,94.00
2022-11-23T20:26:11.071Z,94.10
2022-11-23T20:28:38.197Z,94.10
2022-11-23T20:31:15.660Z,94.00
2022-11-23T20:33:45.851Z,93.60
2022-11-23T20:36:23.881Z,93.70
2022-11-23T20:38:56.756Z,93.80
2022-11-23T20:41:30.367Z,93.90
2022-11-23T20:44:05.979Z,94.10
2022-11-23T20:49:23.002Z,94.00
2022-11-23T20:51:49.891Z,94.10
2022-11-23T20:54:19.280Z,94.00
2022-11-23T20:56:48.925Z,94.00
2022-11-23T20:59:16.009Z,93.90
2022-11-23T21:01:46.866Z,93.70
2022-11-23T21:04:19.523Z,93.80
2022-11-23T21:06:48.465Z,93.90
2022-11-23T21:09:18.119Z,93.90
2022-11-23T21:12:05.729Z,93.90
2022-11-23T21:14:36.164Z,93.90
2022-11-23T21:17:03.557Z,93.80
2022-11-23T21:19:39.029Z,93.60
2022-11-23T21:22:10.983Z,93.50
2022-11-23T21:24:38.109Z,93.60
2022-11-23T21:27:06.445Z,93.50
2022-11-23T21:29:33.899Z,93.50
2022-11-23T21:32:01.471Z,93.60
2022-11-23T21:34:29.556Z,93.60
2022-11-23T21:36:57.560Z,93.70
2022-11-23T21:39:25.230Z,93.70
2022-11-23T21:41:53.711Z,93.70
2022-11-23T21:44:22.223Z,93.90
2022-11-23T21:46:49.562Z,93.90
2022-11-23T21:49:16.415Z,93.90
2022-11-23T21:51:43.679Z,93.60
2022-11-23T21:54:14.067Z,93.70
2022-11-23T21:56:45.111Z,93.90
2022-11-23T21:59:12.597Z,94.00
2022-11-23T22:01:40.370Z,94.00
2022-11-23T22:04:10.538Z,94.10
2022-11-23T22:06:38.444Z,94.10
2022-11-23T22:09:07.538Z,94.20
2022-11-23T22:11:36.025Z,94.20
2022-11-23T22:14:08.156Z,94.20
2022-11-23T22:16:43.188Z,94.20
2022-11-23T22:19:14.777Z,94.20
2022-11-23T22:21:43.389Z,94.20
2022-11-23T22:24:16.090Z,94.20
2022-11-23T22:26:43.156Z,94.20
2022-11-23T22:29:10.576Z,94.10
2022-11-23T22:31:37.592Z,94.20
2022-11-23T22:34:06.609Z,94.10
2022-11-23T22:36:33.373Z,94.10
2022-11-23T22:39:02.595Z,94.30
2022-11-23T22:41:30.684Z,94.30
2022-11-23T22:43:57.505Z,94.30
2022-11-23T22:46:25.488Z,94.30
2022-11-23T22:48:53.240Z,94.40
2022-11-23T22:51:23.677Z,94.40
2022-11-23T22:53:58.486Z,94.40
2022-11-23T22:56:26.128Z,94.30
2022-11-23T22:58:53.242Z,94.40
2022-11-23T23:01:22.525Z,94.40
2022-11-23T23:03:53.227Z,94.40
2022-11-23T23:06:22.302Z,94.30
2022-11-23T23:08:53.872Z,94.30
2022-11-23T23:11:21.179Z,94.40
2022-11-23T23:13:48.441Z,94.40
2022-11-23T23:16:15.694Z,94.40
2022-11-23T23:18:42.939Z,94.40
2022-11-23T23:21:14.139Z,94.40
2022-11-23T23:23:43.399Z,94.40
2022-11-23T23:26:11.421Z,94.30
2022-11-23T23:28:38.279Z,94.40
2022-11-23T23:31:10.088Z,94.40
2022-11-23T23:33:37.607Z,94.40
2022-11-23T23:36:19.665Z,94.30
2022-11-23T23:38:46.759Z,94.40
2022-11-23T23:41:14.384Z,94.50
2022-11-23T23:43:42.138Z,94.50
2022-11-23T23:46:12.149Z,94.50
2022-11-23T23:48:40.505Z,94.50
2022-11-23T23:51:08.095Z,94.50
2022-11-23T23:53:36.069Z,94.40
2022-11-23T23:56:05.932Z,94.30
2022-11-23T23:58:32.867Z,94.40
